Time;durP1;ratioP1;P1;durP2;ratioP2;P2;SDS_P1;SDS_P2;PMS_P1;PMS_P2;Temp;Humidity;BMP_temperature;BMP_pressure;BME280_temperature;BME280_humidity;BME280_pressure;Samples;Min_cycle;Max_cycle;Signal;HPM_P1;HPM_P2
2021/01/07 00:01:14;;;;;;;14.50;10.20;;;1.10;99.90;;;;;;4903210;29;20474;-90
2021/01/07 00:03:42;;;;;;;14.23;9.80;;;1.10;99.90;;;;;;4902224;29;20525;-90
2021/01/07 00:06:09;;;;;;;14.47;10.50;;;1.20;99.90;;;;;;4902622;29;20908;-90
2021/01/07 00:08:36;;;;;;;14.20;9.73;;;1.10;99.90;;;;;;4903089;29;20478;-90
2021/01/07 00:11:03;;;;;;;14.10;10.30;;;1.20;99.90;;;;;;4902888;29;20477;-90
2021/01/07 00:13:30;;;;;;;14.20;10.30;;;1.20;99.90;;;;;;4902675;29;20534;-90
2021/01/07 00:15:57;;;;;;;12.87;10.03;;;1.10;99.90;;;;;;4902475;29;20470;-90
2021/01/07 00:18:23;;;;;;;13.33;10.07;;;1.20;99.90;;;;;;4902547;29;20787;-89
2021/01/07 00:20:51;;;;;;;15.07;11.47;;;1.20;99.90;;;;;;4903061;29;20465;-90
2021/01/07 00:23:18;;;;;;;15.37;11.70;;;1.20;99.90;;;;;;4902562;29;20493;-90
2021/01/07 00:25:48;;;;;;;16.40;11.77;;;1.20;99.90;;;;;;4902972;29;20500;-90
2021/01/07 00:28:15;;;;;;;17.53;12.70;;;1.20;99.90;;;;;;4902524;29;20900;-90
2021/01/07 00:30:43;;;;;;;17.27;12.10;;;1.20;99.90;;;;;;4903042;29;20481;-90
2021/01/07 00:33:10;;;;;;;16.10;13.03;;;1.20;99.90;;;;;;4902284;29;20466;-90
2021/01/07 00:35:37;;;;;;;15.43;12.97;;;1.20;99.90;;;;;;4902567;29;20478;-90
2021/01/07 00:38:05;;;;;;;16.50;13.13;;;1.10;99.90;;;;;;4885495;29;20462;-90
2021/01/07 00:40:32;;;;;;;20.90;13.10;;;1.10;99.90;;;;;;4902923;29;20506;-90
2021/01/07 00:42:59;;;;;;;20.33;13.17;;;1.20;99.90;;;;;;4885719;29;20556;-90
2021/01/07 00:45:26;;;;;;;16.03;13.23;;;1.10;99.90;;;;;;4902007;29;20468;-90
2021/01/07 00:47:53;;;;;;;19.37;13.40;;;1.10;99.90;;;;;;4902731;29;20556;-90
2021/01/07 00:50:19;;;;;;;19.57;14.63;;;1.10;99.90;;;;;;4902283;29;20478;-90
2021/01/07 00:52:46;;;;;;;20.87;13.83;;;1.00;99.90;;;;;;4902196;29;20470;-90
2021/01/07 00:55:16;;;;;;;23.23;13.80;;;1.00;99.90;;;;;;4902158;29;20481;-90
2021/01/07 00:57:42;;;;;;;18.80;13.73;;;1.00;99.90;;;;;;4904519;29;20474;-90
2021/01/07 01:00:11;;;;;;;19.37;12.80;;;1.00;99.90;;;;;;4921076;29;20428;-89
2021/01/07 01:02:38;;;;;;;16.97;12.67;;;1.00;99.90;;;;;;4921231;29;20473;-90
2021/01/07 01:05:08;;;;;;;21.60;12.87;;;1.00;99.90;;;;;;4903909;29;20501;-89
2021/01/07 01:07:37;;;;;;;17.57;11.67;;;1.00;99.90;;;;;;4920883;29;20994;-90
2021/01/07 01:10:08;;;;;;;18.87;13.60;;;1.00;99.90;;;;;;4920932;29;20540;-90
2021/01/07 01:12:36;;;;;;;26.03;16.30;;;1.00;99.90;;;;;;4920896;29;20484;-90
2021/01/07 01:15:07;;;;;;;20.57;13.93;;;1.10;99.90;;;;;;4915055;29;21031;-90
2021/01/07 01:17:34;;;;;;;23.33;13.80;;;1.00;99.90;;;;;;4907768;29;20465;-90
2021/01/07 01:20:03;;;;;;;21.23;15.20;;;1.00;99.90;;;;;;4924393;29;20473;-90
2021/01/07 01:22:34;;;;;;;19.60;14.67;;;1.00;99.90;;;;;;4925104;29;20479;-90
2021/01/07 01:25:07;;;;;;;21.43;14.10;;;1.00;99.90;;;;;;4924977;29;20478;-90
2021/01/07 01:27:39;;;;;;;21.17;14.73;;;0.90;99.90;;;;;;4910417;29;20762;-90
2021/01/07 01:30:09;;;;;;;21.33;14.20;;;1.00;99.90;;;;;;4924800;29;20565;-90
2021/01/07 01:32:38;;;;;;;19.20;12.90;;;1.00;99.90;;;;;;4924444;29;20483;-90
2021/01/07 01:35:06;;;;;;;20.33;12.27;;;1.00;99.90;;;;;;4924389;29;20492;-90
2021/01/07 01:37:34;;;;;;;24.50;14.93;;;1.00;99.90;;;;;;4924752;29;20444;-90
2021/01/07 01:40:01;;;;;;;16.60;10.93;;;1.00;99.90;;;;;;4924501;29;20480;-90
2021/01/07 01:42:27;;;;;;;15.70;11.50;;;1.00;99.90;;;;;;4924256;29;20461;-90
2021/01/07 01:44:55;;;;;;;20.60;12.50;;;1.10;99.90;;;;;;4914846;29;20525;-90
2021/01/07 01:47:22;;;;;;;18.00;10.80;;;1.10;99.90;;;;;;4905307;29;20462;-89
2021/01/07 01:49:51;;;;;;;14.40;10.30;;;1.10;99.90;;;;;;4905361;29;20480;-90
2021/01/07 01:52:19;;;;;;;14.60;11.13;;;1.10;99.90;;;;;;4905312;29;20485;-90
2021/01/07 01:54:45;;;;;;;14.80;10.03;;;1.10;99.90;;;;;;4905288;29;20462;-90
2021/01/07 01:57:13;;;;;;;17.33;11.27;;;1.10;99.90;;;;;;4905710;29;20477;-89
2021/01/07 01:59:40;;;;;;;15.00;9.40;;;1.20;99.90;;;;;;4904944;29;20453;-90
2021/01/07 02:02:08;;;;;;;16.93;10.60;;;1.20;99.90;;;;;;4904950;29;20478;-90
2021/01/07 02:04:36;;;;;;;14.03;10.10;;;1.20;99.90;;;;;;4904747;29;20533;-90
2021/01/07 02:07:04;;;;;;;14.90;10.33;;;1.20;99.90;;;;;;4905416;29;20483;-90
2021/01/07 02:09:31;;;;;;;15.70;11.20;;;1.30;99.90;;;;;;4905085;29;20457;-90
2021/01/07 02:12:00;;;;;;;16.50;9.70;;;1.30;99.90;;;;;;4904841;29;20468;-90
2021/01/07 02:14:27;;;;;;;14.10;10.57;;;1.20;99.90;;;;;;4906321;29;20473;-90
2021/01/07 02:16:55;;;;;;;15.53;12.20;;;1.20;99.90;;;;;;4924224;29;20473;-90
2021/01/07 02:20:09;;;;;;;16.20;9.93;;;1.20;99.90;;;;;;4923670;29;20569;-90
2021/01/07 02:22:36;;;;;;;12.93;9.80;;;1.30;99.90;;;;;;4905569;29;20475;-90
2021/01/07 02:25:04;;;;;;;14.50;11.33;;;1.30;99.90;;;;;;4904138;29;20490;-90
2021/01/07 02:27:31;;;;;;;16.90;11.63;;;1.30;99.90;;;;;;4904686;29;20777;-90
2021/01/07 02:29:57;;;;;;;22.03;10.47;;;1.30;99.90;;;;;;4904829;29;20459;-90
2021/01/07 02:32:25;;;;;;;16.07;10.50;;;1.20;99.90;;;;;;4905271;29;20453;-90
2021/01/07 02:34:51;;;;;;;18.90;12.07;;;1.30;99.90;;;;;;4904513;29;20467;-90
2021/01/07 02:37:18;;;;;;;17.27;12.40;;;1.20;99.90;;;;;;4904395;29;20476;-90
2021/01/07 02:39:45;;;;;;;22.47;13.60;;;1.30;99.90;;;;;;4904324;29;20982;-90
2021/01/07 02:42:12;;;;;;;20.37;13.70;;;1.20;99.90;;;;;;4904705;29;20752;-90
2021/01/07 02:44:39;;;;;;;21.30;14.97;;;1.20;99.90;;;;;;4903977;29;20504;-90
2021/01/07 02:47:06;;;;;;;20.67;14.50;;;1.20;99.90;;;;;;4904903;29;20553;-90
2021/01/07 02:49:33;;;;;;;19.80;13.57;;;1.20;99.90;;;;;;4904269;29;20481;-90
2021/01/07 02:51:59;;;;;;;20.17;13.23;;;1.30;99.90;;;;;;4904700;29;20496;-90
2021/01/07 02:54:28;;;;;;;19.40;13.33;;;1.20;99.90;;;;;;4904235;29;20560;-90
2021/01/07 02:56:55;;;;;;;23.27;15.27;;;1.20;99.90;;;;;;4904734;29;20483;-90
2021/01/07 02:59:22;;;;;;;21.90;14.23;;;1.20;99.90;;;;;;4903945;29;20469;-90
2021/01/07 03:01:49;;;;;;;22.30;14.93;;;1.20;99.90;;;;;;4904694;29;20478;-90
2021/01/07 03:04:15;;;;;;;22.90;14.53;;;1.20;99.90;;;;;;4904402;29;20498;-90
2021/01/07 03:06:42;;;;;;;23.77;16.40;;;1.20;99.90;;;;;;4904474;29;20831;-90
2021/01/07 03:09:09;;;;;;;27.03;15.67;;;1.20;99.90;;;;;;4903996;29;20482;-90
2021/01/07 03:11:36;;;;;;;24.13;16.20;;;1.20;99.90;;;;;;4903983;29;20505;-90
2021/01/07 03:14:04;;;;;;;23.63;15.97;;;1.20;99.90;;;;;;4903928;29;20886;-91
2021/01/07 03:16:30;;;;;;;29.47;18.40;;;1.20;99.90;;;;;;4903886;29;20470;-90
2021/01/07 03:18:57;;;;;;;27.73;18.40;;;1.20;99.90;;;;;;4903443;29;20787;-90
2021/01/07 03:21:24;;;;;;;24.40;16.50;;;1.20;99.90;;;;;;4912298;29;20734;-90
2021/01/07 03:23:51;;;;;;;25.80;16.87;;;1.30;99.90;;;;;;4922706;29;20499;-90
2021/01/07 03:26:18;;;;;;;25.67;16.97;;;1.30;99.90;;;;;;4922722;29;20898;-90
2021/01/07 03:28:45;;;;;;;30.03;17.03;;;1.30;99.90;;;;;;4922555;29;20492;-90
2021/01/07 03:31:13;;;;;;;27.07;19.87;;;1.30;99.90;;;;;;4922481;29;20489;-90
2021/01/07 03:33:39;;;;;;;29.27;20.57;;;1.20;99.90;;;;;;4922650;29;20825;-90
2021/01/07 03:36:07;;;;;;;31.73;21.30;;;1.30;99.90;;;;;;4922595;29;20474;-90
2021/01/07 03:38:33;;;;;;;36.23;21.90;;;1.20;99.90;;;;;;4921988;29;20474;-90
2021/01/07 03:41:00;;;;;;;31.97;21.87;;;1.20;99.90;;;;;;4922208;29;20465;-90
2021/01/07 03:43:27;;;;;;;29.33;21.00;;;1.30;99.90;;;;;;4922468;29;20770;-90
2021/01/07 03:45:53;;;;;;;37.90;23.77;;;1.20;99.90;;;;;;4922848;29;20484;-91
2021/01/07 03:48:21;;;;;;;36.33;23.10;;;1.30;99.90;;;;;;4922283;29;20473;-90
2021/01/07 03:50:49;;;;;;;36.00;24.63;;;1.30;99.90;;;;;;4922797;29;20465;-91
2021/01/07 03:53:16;;;;;;;41.50;27.30;;;1.20;99.90;;;;;;4922354;29;20518;-90
2021/01/07 03:55:42;;;;;;;39.13;26.43;;;1.30;99.90;;;;;;4922277;29;20474;-90
2021/01/07 03:58:09;;;;;;;43.30;27.40;;;1.30;99.90;;;;;;4922168;29;20497;-90
2021/01/07 04:00:36;;;;;;;47.47;27.47;;;1.20;99.90;;;;;;4922911;29;20448;-91
2021/01/07 04:03:04;;;;;;;40.57;25.50;;;1.30;99.90;;;;;;4922319;29;20473;-90
2021/01/07 04:05:32;;;;;;;42.63;27.10;;;1.30;99.90;;;;;;4922266;29;20850;-91
2021/01/07 04:08:01;;;;;;;44.27;26.80;;;1.30;99.90;;;;;;4909565;29;20447;-91
2021/01/07 04:10:27;;;;;;;43.20;27.90;;;1.30;99.90;;;;;;4903711;29;20485;-91
2021/01/07 04:12:55;;;;;;;39.60;25.77;;;1.30;99.90;;;;;;4908251;29;20568;-91
2021/01/07 04:15:22;;;;;;;43.47;25.97;;;1.30;99.90;;;;;;4913356;29;20470;-91
2021/01/07 04:17:49;;;;;;;43.90;27.87;;;1.20;99.90;;;;;;4886408;29;20494;-90
2021/01/07 04:20:16;;;;;;;40.03;27.33;;;1.20;99.90;;;;;;4903409;29;20576;-91
2021/01/07 04:22:44;;;;;;;41.93;27.77;;;1.20;99.90;;;;;;4903272;29;20452;-91
2021/01/07 04:25:12;;;;;;;38.73;25.53;;;1.20;99.90;;;;;;4902474;29;20498;-90
2021/01/07 04:27:39;;;;;;;42.83;29.20;;;1.20;99.90;;;;;;4903166;29;20480;-90
2021/01/07 04:30:07;;;;;;;37.77;26.40;;;1.20;99.90;;;;;;4903205;29;20935;-91
2021/01/07 04:32:35;;;;;;;37.40;24.40;;;1.20;99.90;;;;;;4903167;29;20500;-91
2021/01/07 04:35:05;;;;;;;38.17;25.97;;;1.20;99.90;;;;;;4886226;29;20454;-91
2021/01/07 04:37:33;;;;;;;38.40;25.07;;;1.20;99.90;;;;;;4902575;29;20561;-91
2021/01/07 04:40:01;;;;;;;38.23;24.40;;;1.30;99.90;;;;;;4902817;29;20568;-91
2021/01/07 04:42:29;;;;;;;35.87;24.10;;;1.30;99.90;;;;;;4902694;29;20462;-91
2021/01/07 04:44:57;;;;;;;32.67;22.13;;;1.30;99.90;;;;;;4885870;29;20505;-91
2021/01/07 04:47:25;;;;;;;41.00;24.67;;;1.20;99.90;;;;;;4902716;29;20576;-91
2021/01/07 04:49:53;;;;;;;32.33;21.60;;;1.30;99.90;;;;;;4886312;29;20491;-91
2021/01/07 04:52:21;;;;;;;35.20;21.73;;;1.20;99.90;;;;;;4885671;29;20466;-91
2021/01/07 04:54:52;;;;;;;34.87;22.90;;;1.20;99.90;;;;;;4902449;29;20478;-91
2021/01/07 04:57:21;;;;;;;32.90;22.50;;;1.20;99.90;;;;;;4885771;29;20521;-91
2021/01/07 04:59:49;;;;;;;34.70;21.77;;;1.20;99.90;;;;;;4885564;29;20476;-91
2021/01/07 05:02:19;;;;;;;34.27;22.03;;;1.20;99.90;;;;;;4886274;29;20529;-91
2021/01/07 05:04:50;;;;;;;27.03;19.93;;;1.20;99.90;;;;;;4902346;29;20556;-91
2021/01/07 05:07:20;;;;;;;28.70;22.00;;;1.30;99.90;;;;;;4886298;29;20468;-91
2021/01/07 05:09:47;;;;;;;36.00;22.40;;;1.20;99.90;;;;;;4902737;29;20990;-91
2021/01/07 05:12:17;;;;;;;34.27;22.90;;;1.30;99.90;;;;;;4902711;29;20480;-91
2021/01/07 05:14:48;;;;;;;34.60;21.87;;;1.30;99.90;;;;;;4903058;29;20490;-91
2021/01/07 05:17:17;;;;;;;30.63;20.53;;;1.40;99.90;;;;;;4902745;29;21490;-91
2021/01/07 05:19:45;;;;;;;30.93;21.30;;;1.30;99.90;;;;;;4902787;29;20477;-91
2021/01/07 05:22:14;;;;;;;31.93;21.17;;;1.30;99.90;;;;;;4887978;29;20481;-91
2021/01/07 05:24:43;;;;;;;29.40;20.83;;;1.20;99.90;;;;;;4911011;29;20517;-91
2021/01/07 05:27:12;;;;;;;29.57;19.40;;;1.30;99.90;;;;;;4912267;29;20473;-91
2021/01/07 05:29:41;;;;;;;29.10;20.13;;;1.30;99.90;;;;;;4921580;29;20881;-91
2021/01/07 05:32:12;;;;;;;31.90;20.30;;;1.30;99.90;;;;;;4907362;29;20489;-91
2021/01/07 05:34:49;;;;;;;28.60;19.80;;;1.30;99.90;;;;;;4902854;29;20474;-91
2021/01/07 05:37:17;;;;;;;35.17;19.77;;;1.20;99.90;;;;;;4902474;29;20572;-91
2021/01/07 05:39:56;;;;;;;24.80;16.50;;;1.30;99.90;;;;;;4909748;29;20473;-91
2021/01/07 05:42:24;;;;;;;27.77;18.57;;;1.20;99.90;;;;;;4921495;29;20479;-91
2021/01/07 05:44:52;;;;;;;26.57;18.20;;;1.20;99.90;;;;;;4921480;29;20493;-91
2021/01/07 05:47:44;;;;;;;26.60;17.63;;;1.20;99.90;;;;;;4920899;29;20496;-91
2021/01/07 05:50:13;;;;;;;28.70;18.40;;;1.20;99.90;;;;;;4921724;29;20856;-91
2021/01/07 05:52:47;;;;;;;23.63;18.03;;;1.20;99.90;;;;;;4902979;29;20474;-91
2021/01/07 05:55:17;;;;;;;23.17;17.10;;;1.20;99.90;;;;;;4900434;29;20846;-91
2021/01/07 05:57:50;;;;;;;27.77;18.17;;;1.20;99.90;;;;;;4902400;29;20469;-91
2021/01/07 06:00:20;;;;;;;26.77;18.07;;;1.20;99.90;;;;;;4902630;29;20504;-91
2021/01/07 06:02:58;;;;;;;26.40;17.90;;;1.20;99.90;;;;;;4902176;29;20535;-91
2021/01/07 06:05:28;;;;;;;26.60;18.27;;;1.30;99.90;;;;;;4905015;29;20500;-91
2021/01/07 06:07:58;;;;;;;29.23;19.67;;;1.20;99.90;;;;;;4905925;29;20481;-91
2021/01/07 06:10:26;;;;;;;24.47;17.57;;;1.20;99.90;;;;;;4905667;29;20900;-91
2021/01/07 06:12:56;;;;;;;29.93;19.20;;;1.20;99.90;;;;;;4906031;29;20479;-91
2021/01/07 06:15:26;;;;;;;28.63;19.23;;;1.20;99.90;;;;;;4905309;29;20447;-91
2021/01/07 06:17:58;;;;;;;30.57;20.70;;;1.30;99.90;;;;;;4905735;29;20572;-91
2021/01/07 06:20:26;;;;;;;29.30;20.80;;;1.40;99.90;;;;;;4906633;29;20581;-91
2021/01/07 06:22:55;;;;;;;30.33;21.10;;;1.30;99.90;;;;;;4924919;29;20480;-91
2021/01/07 06:25:26;;;;;;;27.77;19.03;;;1.30;99.90;;;;;;4923980;29;20478;-91
2021/01/07 06:28:00;;;;;;;25.17;18.90;;;1.30;99.90;;;;;;4908418;29;20864;-91
2021/01/07 06:30:39;;;;;;;27.40;19.77;;;1.30;99.90;;;;;;4905867;29;20445;-91
2021/01/07 06:33:18;;;;;;;26.87;19.00;;;1.40;99.90;;;;;;4905657;29;20501;-91
2021/01/07 06:35:46;;;;;;;26.03;18.07;;;1.30;99.90;;;;;;4923170;29;20835;-91
2021/01/07 06:38:28;;;;;;;28.37;19.43;;;1.30;99.90;;;;;;4923921;29;20784;-91
2021/01/07 06:41:01;;;;;;;27.73;18.10;;;1.30;99.90;;;;;;4920818;29;20495;-91
2021/01/07 06:43:29;;;;;;;23.87;14.87;;;1.30;99.90;;;;;;4923963;29;20558;-91
2021/01/07 06:46:01;;;;;;;23.67;15.60;;;1.30;99.90;;;;;;4923491;29;20643;-91
2021/01/07 06:51:17;;;;;;;27.17;18.53;;;1.20;99.90;;;;;;4905714;29;20549;-91
2021/01/07 06:53:47;;;;;;;28.83;20.13;;;1.20;99.90;;;;;;4919194;29;20780;-91
2021/01/07 06:56:19;;;;;;;30.87;18.00;;;1.30;99.90;;;;;;4922989;29;20475;-91
2021/01/07 06:58:48;;;;;;;26.83;17.13;;;1.20;99.90;;;;;;4904667;29;20465;-91
2021/01/07 07:01:16;;;;;;;28.20;18.53;;;1.30;99.90;;;;;;4904890;29;20552;-91
2021/01/07 07:03:56;;;;;;;30.33;19.43;;;1.40;99.90;;;;;;4905025;29;20485;-91
2021/01/07 07:06:30;;;;;;;29.57;20.27;;;1.40;99.90;;;;;;4888218;29;20475;-92
2021/01/07 07:09:16;;;;;;;29.30;20.10;;;1.40;99.90;;;;;;4905788;29;20572;-91
2021/01/07 07:11:55;;;;;;;31.30;20.80;;;1.30;99.90;;;;;;4905011;29;20529;-91
2021/01/07 07:14:29;;;;;;;34.20;21.00;;;1.30;99.90;;;;;;4904976;29;20464;-91
2021/01/07 07:17:00;;;;;;;40.73;22.00;;;1.30;99.90;;;;;;4903864;29;20477;-91
2021/01/07 07:19:35;;;;;;;34.80;20.90;;;1.40;99.90;;;;;;4904598;29;20495;-91
2021/01/07 07:22:06;;;;;;;35.63;20.20;;;1.30;99.90;;;;;;4904657;29;20473;-91
2021/01/07 07:24:36;;;;;;;30.20;20.47;;;1.40;99.90;;;;;;4905094;29;20791;-91
2021/01/07 07:27:11;;;;;;;34.67;21.83;;;1.40;99.90;;;;;;4905206;29;20470;-91
2021/01/07 07:29:42;;;;;;;31.47;19.93;;;1.40;99.90;;;;;;4904676;29;20481;-91
2021/01/07 07:32:25;;;;;;;37.13;22.07;;;1.30;99.90;;;;;;4888331;29;20574;-91
2021/01/07 07:34:57;;;;;;;29.37;18.57;;;1.30;99.90;;;;;;4886460;29;20466;-92
2021/01/07 07:37:27;;;;;;;35.33;19.37;;;1.30;99.90;;;;;;4904474;29;20497;-91
2021/01/07 07:57:25;;;;;;;23.80;16.33;;;1.30;99.90;;;;;;663139;23;21983;31
2021/01/07 08:00:05;;;;;;;25.37;17.67;;;1.30;99.90;;;;;;4922349;29;20533;-92
2021/01/07 13:41:32;;;;;;;15.97;11.57;;;2.20;99.90;;;;;;4921438;29;20927;-91
2021/01/07 13:44:13;;;;;;;17.47;13.87;;;2.20;99.90;;;;;;4923293;29;20488;-91
2021/01/07 13:46:46;;;;;;;22.43;17.20;;;2.10;99.90;;;;;;4923245;29;20475;-91
2021/01/07 13:49:23;;;;;;;18.30;15.13;;;2.10;99.90;;;;;;4922030;29;20478;-91
2021/01/07 13:51:51;;;;;;;17.20;13.57;;;2.10;99.90;;;;;;4921747;29;20473;-91
2021/01/07 13:54:21;;;;;;;17.93;12.90;;;2.10;99.90;;;;;;4906134;29;20456;-92
2021/01/07 13:57:08;;;;;;;18.93;13.93;;;2.00;99.90;;;;;;4923347;29;20466;-92
2021/01/07 13:59:40;;;;;;;20.30;14.97;;;2.10;99.90;;;;;;4922861;29;20462;-93
